Anthony, IN

8:27 AM EDT on November 01, 2014 (GMT -0400)
Ball State University | Change Station
CLOSE
Current Station
Personal Weather Station
Location: Muncie, IN
Elevation: 968 ft
Nearby Weather Stations
Active Advisory: Freeze Warning Active Notice: Record Report, Public Information Statement

Elev 968 ft 40.20 °N, 85.41 °W | Updated 1 minute ago

Overcast
Overcast
33.6 °F
Feels Like 25 °F
N
12.0
Wind Variable Wind from NNE
Gusts 20.0 mph

Today
High -- | Low -- °F
--% Chance of Precip.
Yesterday
High -- | Low -- °F
Precip. -- in
8:10 AM 6:38 PM
Waxing Gibbous, 66% visible
Pressure 30.27 in
Visibility 10.0 miles
Clouds Overcast 2800 ft
Windchill 25 °F
Dew Point 25 °F
Humidity 71%
Rainfall 0.00 in
Snow Depth Not available.
UV 0 out of 12
Pollen .10 out of 12
Air Quality Not available.
Flu Activity Not available.
METAR KMIE 011153Z 01017G24KT 10SM OVC028 00/M04 A3025 RMK AO2 SLP249 70021 T00001039 10011 20000 51026

More Conditions Fewer Conditions

Pressure 30.27 in
Visibility 10.0 miles
Clouds Overcast 2800 ft
Windchill 25 °F
Dew Point 25 °F
Humidity 71%
Rainfall 0.00 in
Snow Depth Not available.
UV 0 out of 12
Pollen .10 out of 12
Air Quality Not available.
Flu Activity Not available.
METAR KMIE 011153Z 01017G24KT 10SM OVC028 00/M04 A3025 RMK AO2 SLP249 70021 T00001039 10011 20000 51026

More Conditions Fewer Conditions

10-Day Weather Forecast

Almanac

Astronomy

Nov. 01, 2014 Rise Set
Actual Time
Civil Twilight
Nautical Twilight
Astronomical Twilight
Moon
Length of Visible Light
Length of Day
Tomorrow will be .
, % of the Moon is Illuminated

Today's Extremes

State Highs State Lows

Community

WunderPhotos

Upload Photos

1,766,912 photos uploaded!

WunderBlogs® & News

Nearby

Air Quality

  Air Quality AQ Index Pollutant
Not available.

Snow Depth

Station Depth Elevation

Earthquake Activity

City Distance Mag. Time & Date
Minimum magnitude displayed is 2.5.

Coastal Water Temperatures

Place Temperature

Nearby Weather Stations